Time;durP1;ratioP1;P1;durP2;ratioP2;P2;SDS_P1;SDS_P2;PMS_P1;PMS_P2;Temp;Humidity;BMP_temperature;BMP_pressure;BME280_temperature;BME280_humidity;BME280_pressure;Samples;Min_cycle;Max_cycle;Signal;HPM_P1;HPM_P2
2023/07/23 00:03:49;;;;;;;2.83;1.27;;;;;;;22.25;40.96;100814.25;16100053;19;129650;-63
2023/07/23 00:09:11;;;;;;;2.30;1.20;;;;;;;22.25;40.55;100803.94;16111639;19;129660;-63
2023/07/23 00:14:32;;;;;;;3.35;1.17;;;;;;;22.24;40.66;100791.13;16111122;19;130320;-60
2023/07/23 00:19:54;;;;;;;2.47;0.85;;;;;;;22.22;40.87;100781.38;16140523;19;130693;-64
2023/07/23 00:25:16;;;;;;;2.65;1.27;;;;;;;22.23;40.83;100766.31;16139861;19;133495;-63
2023/07/23 00:30:38;;;;;;;1.75;1.00;;;;;;;22.22;40.92;100770.22;16137914;19;131028;-61
2023/07/23 00:36:00;;;;;;;3.58;1.30;;;;;;;22.22;40.85;100756.28;16139913;19;129771;-61
2023/07/23 00:41:22;;;;;;;3.90;1.00;;;;;;;22.21;40.67;100749.03;16136631;19;130055;-61
2023/07/23 00:46:45;;;;;;;4.65;1.20;;;;;;;22.21;40.62;100733.19;16138687;19;129303;-61
2023/07/23 00:52:07;;;;;;;2.10;1.20;;;;;;;22.20;40.84;100734.25;16136384;19;129670;-57
2023/07/23 00:57:29;;;;;;;1.92;0.90;;;;;;;22.21;41.05;100721.19;16139790;19;131839;-60
2023/07/23 01:02:51;;;;;;;3.08;1.10;;;;;;;22.20;41.15;100719.47;16140865;19;129578;-61
2023/07/23 01:08:14;;;;;;;2.40;1.02;;;;;;;22.21;40.95;100708.09;16137516;19;130844;-61
2023/07/23 01:13:38;;;;;;;2.40;0.90;;;;;;;22.19;40.85;100693.56;16142131;19;130235;-60
2023/07/23 01:19:01;;;;;;;1.92;0.98;;;;;;;22.19;41.29;100696.34;16133727;19;129685;-61
2023/07/23 01:24:24;;;;;;;2.85;1.00;;;;;;;22.19;40.66;100681.56;16129494;19;130067;-59
2023/07/23 01:29:45;;;;;;;2.55;1.02;;;;;;;22.18;40.93;100672.38;16121960;19;130089;-60
2023/07/23 01:35:11;;;;;;;1.65;0.98;;;;;;;22.18;40.73;100658.47;16124901;19;130908;-60
2023/07/23 01:40:33;;;;;;;2.17;1.05;;;;;;;22.18;41.23;100649.25;16123076;19;130161;-60
2023/07/23 01:45:55;;;;;;;1.92;0.90;;;;;;;22.17;41.09;100644.78;16115722;19;131462;-60
2023/07/23 01:51:17;;;;;;;2.72;0.93;;;;;;;22.17;41.07;100639.22;16118967;19;130797;-60
2023/07/23 01:56:39;;;;;;;5.35;0.95;;;;;;;22.17;41.24;100639.22;16121695;19;129461;-60
2023/07/23 02:02:04;;;;;;;2.80;1.00;;;;;;;22.16;41.02;100638.38;16113373;19;129949;-59
2023/07/23 02:07:26;;;;;;;1.38;0.80;;;;;;;22.16;41.01;100637.53;16121441;19;129508;-60
2023/07/23 02:12:48;;;;;;;1.40;0.77;;;;;;;22.16;41.05;100626.41;16119667;19;129424;-60
2023/07/23 02:18:10;;;;;;;1.70;0.77;;;;;;;22.15;41.22;100621.97;16114156;19;131063;-60
2023/07/23 02:23:32;;;;;;;2.45;0.80;;;;;;;22.14;40.92;100623.91;16118002;19;131049;-60
2023/07/23 02:28:54;;;;;;;1.15;0.90;;;;;;;22.13;40.79;100625.88;16119338;19;130332;-60
2023/07/23 02:34:16;;;;;;;2.92;0.85;;;;;;;22.13;40.98;100620.28;16116993;19;131137;-58
2023/07/23 02:39:38;;;;;;;2.05;1.00;;;;;;;22.13;41.08;100611.09;16117291;19;129104;-60
2023/07/23 02:45:00;;;;;;;1.17;0.88;;;;;;;22.12;41.38;100618.63;16117474;19;129454;-60
2023/07/23 02:50:22;;;;;;;1.52;0.82;;;;;;;22.12;41.44;100610.25;16114877;19;130780;-60
2023/07/23 02:55:45;;;;;;;1.48;0.82;;;;;;;22.12;40.85;100609.41;16115933;19;129116;-59
2023/07/23 03:01:06;;;;;;;1.75;0.85;;;;;;;22.11;40.82;100614.16;16116019;19;130314;-61
2023/07/23 03:06:28;;;;;;;1.20;0.70;;;;;;;22.10;41.20;100601.34;16113406;19;130902;-60
2023/07/23 03:11:50;;;;;;;1.30;0.95;;;;;;;22.11;41.06;100600.22;16115381;19;130474;-60
2023/07/23 03:17:12;;;;;;;1.25;0.70;;;;;;;22.10;41.28;100598.56;16110302;19;131143;-60
2023/07/23 03:22:35;;;;;;;1.90;0.82;;;;;;;22.09;41.33;100596.88;16112555;19;129691;-60
2023/07/23 03:27:59;;;;;;;1.98;0.82;;;;;;;22.10;41.47;100595.75;16110034;19;131126;-60
2023/07/23 03:33:21;;;;;;;1.92;0.90;;;;;;;22.09;41.33;100591.31;16114475;19;130638;-61
2023/07/23 03:38:43;;;;;;;1.58;1.00;;;;;;;22.08;41.16;100592.41;16111176;19;129473;-59
2023/07/23 03:44:06;;;;;;;2.78;1.00;;;;;;;22.08;41.43;100584.06;16113369;19;130920;-60
2023/07/23 03:49:28;;;;;;;0.63;0.63;;;;;;;22.08;41.34;100591.59;16110347;19;129944;-60
2023/07/23 03:54:50;;;;;;;3.08;1.15;;;;;;;22.06;40.96;100580.72;16110750;19;130303;-61
2023/07/23 04:00:13;;;;;;;1.40;0.80;;;;;;;22.07;40.98;100584.34;16110144;19;130083;-60
2023/07/23 04:05:35;;;;;;;1.30;0.90;;;;;;;22.07;41.29;100587.13;16111715;19;131384;-60
2023/07/23 04:10:57;;;;;;;2.63;0.73;;;;;;;22.06;41.38;100588.25;16107782;19;130955;-61
2023/07/23 04:16:19;;;;;;;2.88;0.80;;;;;;;22.06;41.16;100588.25;16109283;19;131780;-60
2023/07/23 04:21:41;;;;;;;2.97;0.90;;;;;;;22.06;40.88;100588.25;16109062;19;129771;-61
2023/07/23 04:27:03;;;;;;;1.25;0.77;;;;;;;22.06;41.45;100596.59;16109153;19;130560;-60
2023/07/23 04:32:25;;;;;;;1.35;0.70;;;;;;;22.04;41.38;100585.72;16106371;19;131044;-60
2023/07/23 04:37:47;;;;;;;1.63;0.90;;;;;;;22.04;41.20;100582.94;16106830;19;130306;-60
2023/07/23 04:43:09;;;;;;;1.65;1.00;;;;;;;22.04;41.42;100580.16;16105128;19;129687;-61
2023/07/23 04:48:32;;;;;;;3.80;0.93;;;;;;;22.03;40.89;100584.03;16106427;19;129548;-61
2023/07/23 04:53:54;;;;;;;1.20;0.90;;;;;;;22.04;41.45;100587.69;16104876;19;130202;-60
2023/07/23 04:59:16;;;;;;;1.00;0.80;;;;;;;22.03;41.31;100581.25;16108405;19;129412;-60
2023/07/23 05:04:38;;;;;;;1.15;1.00;;;;;;;22.03;41.07;100577.66;16114436;19;130114;-60
2023/07/23 05:10:02;;;;;;;1.15;1.00;;;;;;;22.02;40.89;100581.56;16119845;19;130552;-61
2023/07/23 05:15:28;;;;;;;1.55;1.00;;;;;;;22.02;41.43;100581.56;16120306;19;130334;-61
2023/07/23 05:20:50;;;;;;;1.65;1.10;;;;;;;22.02;41.12;100587.13;16123443;19;130628;-61
2023/07/23 05:26:12;;;;;;;1.73;0.80;;;;;;;22.01;41.10;100588.22;16115068;19;131922;-60
2023/07/23 05:31:34;;;;;;;1.83;1.00;;;;;;;22.02;41.13;100587.13;16122073;19;131154;-60
2023/07/23 05:36:56;;;;;;;2.45;1.00;;;;;;;22.01;41.10;100577.94;16119902;19;129388;-60
2023/07/23 05:42:18;;;;;;;2.42;0.90;;;;;;;22.00;41.02;100590.19;16114398;19;129645;-60
2023/07/23 05:47:40;;;;;;;1.42;1.02;;;;;;;21.98;41.03;100581.28;16122959;19;130411;-60
2023/07/23 05:53:01;;;;;;;1.60;0.80;;;;;;;22.00;40.79;100578.19;16119998;19;130755;-61
2023/07/23 05:58:24;;;;;;;1.67;0.98;;;;;;;22.01;41.03;100577.09;16115988;19;131060;-57
2023/07/23 06:03:46;;;;;;;1.15;0.98;;;;;;;22.03;40.91;100589.63;16116295;19;130327;-58
2023/07/23 06:09:18;;;;;;;7.45;1.20;;;;;;;22.07;40.96;100596.31;16116734;19;131002;-58
2023/07/23 06:14:39;;;;;;;2.00;1.27;;;;;;;22.09;41.21;100594.09;16117189;19;131236;-53
2023/07/23 06:20:01;;;;;;;1.65;1.38;;;;;;;22.07;40.66;100590.75;16116754;19;131141;-54
2023/07/23 06:25:23;;;;;;;10.52;1.85;;;;;;;22.04;40.41;100596.03;16113338;19;129275;-58
2023/07/23 06:30:45;;;;;;;2.28;1.50;;;;;;;22.04;40.72;100585.72;16113084;19;129458;-57
2023/07/23 06:36:07;;;;;;;5.82;2.00;;;;;;;22.02;40.80;100599.13;16114532;19;130274;-61
2023/07/23 06:41:29;;;;;;;8.18;1.90;;;;;;;22.01;40.90;100614.16;16113935;19;130617;-57
2023/07/23 06:46:52;;;;;;;9.88;2.13;;;;;;;22.01;40.92;100613.28;16110877;19;130857;-58
2023/07/23 06:52:14;;;;;;;6.97;2.03;;;;;;;22.00;40.91;100626.41;16115277;19;130778;-59
2023/07/23 06:57:38;;;;;;;16.85;2.50;;;;;;;21.98;40.68;100628.63;16117957;19;129775;-57
2023/07/23 07:03:00;;;;;;;11.70;3.08;;;;;;;21.96;40.87;100628.91;16113283;19;129709;-58
2023/07/23 07:08:22;;;;;;;6.32;2.63;;;;;;;21.96;40.81;100619.69;16113811;19;130195;-59
2023/07/23 07:13:44;;;;;;;5.05;2.72;;;;;;;21.95;40.90;100616.09;16114365;19;129959;-59
2023/07/23 07:19:06;;;;;;;4.72;2.75;;;;;;;21.96;41.16;100616.91;16112751;19;129433;-59
2023/07/23 07:24:28;;;;;;;8.60;3.20;;;;;;;21.97;41.37;100626.94;16111663;19;129993;-59
2023/07/23 07:29:50;;;;;;;12.98;3.15;;;;;;;22.00;41.17;100619.97;16111419;19;130748;-58
2023/07/23 07:35:12;;;;;;;6.93;3.17;;;;;;;22.02;40.96;100620.53;16104119;19;130572;-58
2023/07/23 07:40:38;;;;;;;12.63;2.97;;;;;;;22.07;41.34;100618.59;16103832;19;129553;-59
2023/07/23 07:46:02;;;;;;;10.50;3.25;;;;;;;22.10;41.58;100612.47;16105334;19;131013;-57
2023/07/23 07:51:25;;;;;;;8.43;3.50;;;;;;;22.15;41.22;100616.41;16109424;19;131186;-58
2023/07/23 07:56:47;;;;;;;10.00;3.08;;;;;;;22.17;41.22;100616.94;16110086;19;131051;-58
2023/07/23 08:02:10;;;;;;;7.78;2.97;;;;;;;22.18;41.62;100610.25;16106090;19;129573;-60
2023/07/23 08:07:32;;;;;;;5.32;3.25;;;;;;;22.20;41.68;100605.22;16108143;19;136476;-62
2023/07/23 08:12:55;;;;;;;8.45;3.15;;;;;;;22.19;41.55;100609.13;16112288;19;129803;-57
2023/07/23 08:18:18;;;;;;;7.13;3.55;;;;;;;22.22;41.63;100598.28;16106217;19;129792;-65
2023/07/23 08:23:40;;;;;;;11.38;3.05;;;;;;;22.25;41.85;100608.06;16107570;19;130373;-58
2023/07/23 08:29:05;;;;;;;7.82;2.50;;;;;;;22.28;41.94;100615.84;16100393;19;132185;-60
2023/07/23 08:34:27;;;;;;;7.93;2.78;;;;;;;22.30;41.55;100610.81;16108134;19;131374;-57
2023/07/23 08:39:49;;;;;;;8.02;2.95;;;;;;;22.33;42.06;100609.47;16118257;19;131019;-57
2023/07/23 08:45:21;;;;;;;19.33;4.00;;;;;;;22.34;42.01;100611.94;16120977;19;134261;-55
2023/07/23 08:50:45;;;;;;;10.93;3.00;;;;;;;22.31;42.23;100611.69;16122067;19;130119;-55
2023/07/23 08:56:08;;;;;;;14.20;3.00;;;;;;;22.32;41.82;100616.97;16118713;19;131308;-55
2023/07/23 09:01:47;;;;;;;16.05;3.53;;;;;;;22.36;42.08;100609.72;16112620;19;130609;-58
2023/07/23 09:07:11;;;;;;;9.75;2.42;;;;;;;22.36;42.11;100614.44;16121082;19;130134;-64
2023/07/23 09:12:33;;;;;;;6.90;2.30;;;;;;;22.37;42.52;100611.41;16125088;19;129556;-63
2023/07/23 09:17:55;;;;;;;7.07;2.42;;;;;;;22.38;42.58;100617.78;16117565;19;130492;-63
2023/07/23 09:23:17;;;;;;;7.50;2.50;;;;;;;22.35;42.42;100624.78;16119716;19;129465;-60
2023/07/23 09:28:39;;;;;;;11.82;2.70;;;;;;;22.35;42.48;100627.56;16119270;19;130532;-58
2023/07/23 09:34:02;;;;;;;5.97;1.95;;;;;;;22.38;42.85;100634.53;16121646;19;129645;-60
2023/07/23 09:39:27;;;;;;;4.57;1.70;;;;;;;22.34;42.86;100639.00;16118488;19;129447;-64
2023/07/23 09:44:49;;;;;;;3.60;1.55;;;;;;;22.31;43.08;100639.53;16120929;19;129731;-61
2023/07/23 09:50:14;;;;;;;2.00;1.30;;;;;;;22.28;44.08;100635.34;16119040;19;133261;-61
2023/07/23 09:55:40;;;;;;;1.75;1.35;;;;;;;22.25;44.72;100635.94;16120261;19;129322;-50
2023/07/23 10:01:02;;;;;;;3.05;1.30;;;;;;;22.22;44.63;100642.03;16116236;19;131048;-57
2023/07/23 10:06:25;;;;;;;1.63;1.25;;;;;;;22.20;44.63;100638.66;16116599;19;130796;-57
2023/07/23 10:11:47;;;;;;;2.83;1.52;;;;;;;22.16;45.42;100643.09;16108069;19;130461;-59
2023/07/23 10:17:09;;;;;;;1.80;1.52;;;;;;;22.18;45.22;100635.31;16120074;19;129593;-58
2023/07/23 10:22:34;;;;;;;3.70;1.80;;;;;;;22.20;44.95;100636.72;16120534;19;129763;-59
2023/07/23 10:27:58;;;;;;;4.45;1.80;;;;;;;22.21;45.12;100640.38;16119786;19;129762;-58
2023/07/23 10:33:26;;;;;;;3.87;1.80;;;;;;;22.28;44.89;100646.50;16119071;19;129375;-59
2023/07/23 10:39:20;;;;;;;6.28;1.90;;;;;;;22.31;45.21;100639.53;16130145;19;130468;-63
2023/07/23 10:44:42;;;;;;;7.82;2.35;;;;;;;22.30;44.92;100627.56;16120184;19;131346;-62
2023/07/23 10:50:14;;;;;;;5.85;2.00;;;;;;;22.35;45.37;100630.34;16102436;19;133070;-62
2023/07/23 10:55:37;;;;;;;4.78;1.95;;;;;;;22.35;45.18;100629.50;16113907;19;134298;-62
2023/07/23 11:00:59;;;;;;;3.90;1.58;;;;;;;22.38;45.35;100624.22;16109068;19;130179;-63
2023/07/23 11:06:32;;;;;;;4.43;1.70;;;;;;;22.40;45.97;100630.31;16115707;19;129782;-63
2023/07/23 11:11:55;;;;;;;8.30;2.08;;;;;;;22.42;46.14;100630.88;16112886;19;129708;-62
2023/07/23 11:17:17;;;;;;;12.85;2.90;;;;;;;22.43;46.78;100617.81;16115965;19;130135;-62
2023/07/23 11:22:43;;;;;;;11.32;3.03;;;;;;;22.47;46.67;100618.06;16111632;19;130650;-64
2023/07/23 11:28:06;;;;;;;18.00;2.65;;;;;;;22.51;46.54;100608.88;16110631;19;130664;-63
2023/07/23 11:33:33;;;;;;;15.25;2.65;;;;;;;22.54;46.99;100607.47;16113239;19;129570;-62
2023/07/23 11:38:56;;;;;;;19.98;2.95;;;;;;;22.58;47.01;100609.44;16115531;19;129680;-65
2023/07/23 11:44:19;;;;;;;14.88;2.60;;;;;;;22.59;47.10;100605.50;16108490;19;129625;-67
2023/07/23 11:49:44;;;;;;;19.90;3.00;;;;;;;22.57;47.05;100616.13;16110581;19;129565;-64
2023/07/23 11:55:18;;;;;;;23.73;3.10;;;;;;;22.60;47.29;100611.94;16111993;19;130444;-66
2023/07/23 12:00:45;;;;;;;23.58;3.30;;;;;;;22.62;47.32;100598.53;16113879;19;130694;-70
2023/07/23 12:06:09;;;;;;;16.38;3.03;;;;;;;22.65;47.41;100595.16;16110495;19;130379;-59
2023/07/23 12:11:32;;;;;;;13.90;3.08;;;;;;;22.65;47.62;100589.59;16109920;19;131374;-60
2023/07/23 12:16:56;;;;;;;19.02;2.88;;;;;;;22.69;47.95;100599.06;16110954;19;130420;-64
2023/07/23 12:22:18;;;;;;;28.35;3.97;;;;;;;22.70;47.62;100595.19;16108406;19;130298;-66
2023/07/23 12:27:40;;;;;;;14.50;2.65;;;;;;;22.71;47.66;100607.16;16113650;19;129876;-57
2023/07/23 12:33:03;;;;;;;22.65;3.35;;;;;;;22.71;47.66;100591.28;16110752;19;129850;-58
2023/07/23 12:38:25;;;;;;;13.80;2.95;;;;;;;22.72;47.40;100592.94;16111442;19;129348;-62
2023/07/23 12:43:47;;;;;;;15.30;2.58;;;;;;;22.74;47.60;100593.50;16107050;19;130230;-54
2023/07/23 12:49:09;;;;;;;12.70;2.40;;;;;;;22.79;47.70;100594.59;16100305;19;131344;-58
2023/07/23 12:54:31;;;;;;;21.23;3.60;;;;;;;22.85;47.76;100594.28;16110202;19;129734;-65
2023/07/23 12:59:53;;;;;;;28.50;3.17;;;;;;;22.91;48.06;100580.38;16109319;19;129716;-59
2023/07/23 13:05:15;;;;;;;21.92;2.67;;;;;;;22.94;47.54;100582.59;16109663;19;129791;-59
2023/07/23 13:10:37;;;;;;;15.98;3.28;;;;;;;22.96;47.86;100577.53;16113322;19;130114;-63
2023/07/23 13:15:59;;;;;;;23.02;3.35;;;;;;;22.94;47.68;100569.47;16105317;19;129667;-60
2023/07/23 13:21:21;;;;;;;25.52;2.55;;;;;;;22.98;47.43;100573.38;16107242;19;129864;-59
2023/07/23 13:26:47;;;;;;;14.48;2.83;;;;;;;22.98;47.42;100567.78;16115102;19;129489;-59
2023/07/23 13:32:09;;;;;;;19.42;2.88;;;;;;;22.97;47.51;100576.44;16122809;19;129940;-59
2023/07/23 13:37:31;;;;;;;13.48;2.20;;;;;;;22.93;47.61;100581.75;16120983;19;130308;-58
2023/07/23 13:42:53;;;;;;;16.23;2.65;;;;;;;22.91;47.31;100578.41;16124260;19;130084;-59
2023/07/23 13:48:15;;;;;;;19.73;2.75;;;;;;;22.92;47.67;100565.31;16120888;19;130591;-60
2023/07/23 13:53:37;;;;;;;18.52;2.25;;;;;;;22.92;48.08;100568.09;16118897;19;130058;-59
2023/07/23 13:58:59;;;;;;;22.25;2.50;;;;;;;22.92;47.56;100559.72;16122756;19;130879;-58
2023/07/23 14:04:21;;;;;;;9.65;2.58;;;;;;;22.89;47.70;100570.31;16129337;19;129758;-53
2023/07/23 14:09:43;;;;;;;34.28;3.13;;;;;;;22.91;47.36;100564.47;16123646;19;131667;-57
2023/07/23 14:15:06;;;;;;;25.38;3.30;;;;;;;22.95;47.34;100565.56;16121556;19;131049;-60
2023/07/23 14:20:28;;;;;;;21.25;2.70;;;;;;;22.98;47.21;100553.84;16120635;19;131208;-56
2023/07/23 14:25:50;;;;;;;17.38;2.30;;;;;;;22.97;47.29;100542.97;16131534;19;129804;-57
2023/07/23 14:31:12;;;;;;;17.17;2.40;;;;;;;22.96;46.89;100546.88;16122444;19;133166;-59
2023/07/23 14:36:34;;;;;;;16.98;2.42;;;;;;;22.92;47.34;100543.81;16134963;19;130129;-57
2023/07/23 14:41:56;;;;;;;15.38;2.78;;;;;;;22.88;47.26;100553.84;16190388;19;128790;-65
2023/07/23 14:47:18;;;;;;;12.50;2.20;;;;;;;22.85;47.36;100560.00;16203348;19;128592;-65
2023/07/23 14:52:40;;;;;;;9.57;2.05;;;;;;;22.83;47.26;100542.72;16203193;19;129180;-65
2023/07/23 14:58:02;;;;;;;7.68;2.05;;;;;;;22.82;47.21;100560.56;16206046;19;128425;-66
2023/07/23 15:03:25;;;;;;;9.40;2.25;;;;;;;22.81;47.28;100579.25;16204578;19;129568;-67
2023/07/23 15:08:47;;;;;;;11.45;2.05;;;;;;;22.79;47.32;100566.69;16207056;19;129169;-66
2023/07/23 15:14:09;;;;;;;7.18;2.08;;;;;;;22.78;46.86;100565.03;16207760;19;128093;-66
2023/07/23 15:19:31;;;;;;;6.13;1.77;;;;;;;22.80;47.22;100571.16;16210228;19;128923;-65
2023/07/23 15:24:54;;;;;;;4.43;1.88;;;;;;;22.82;47.12;100571.72;16158391;19;129989;-63
2023/07/23 15:30:17;;;;;;;4.57;1.88;;;;;;;22.80;47.26;100579.53;16184305;19;129332;-62
2023/07/23 15:35:39;;;;;;;3.45;1.50;;;;;;;22.78;47.01;100582.59;16181048;19;129874;-63
2023/07/23 15:41:01;;;;;;;4.47;1.50;;;;;;;22.78;47.26;100581.75;16156947;19;130988;-62
2023/07/23 15:46:23;;;;;;;4.68;1.77;;;;;;;22.83;47.21;100573.38;16142820;19;129533;-61
2023/07/23 15:51:45;;;;;;;6.43;2.00;;;;;;;22.84;47.03;100558.31;16119713;19;132085;-62
2023/07/23 15:57:07;;;;;;;2.92;1.58;;;;;;;22.84;47.15;100552.75;16120421;19;129896;-60
2023/07/23 16:02:29;;;;;;;4.10;1.40;;;;;;;22.85;47.26;100554.41;16116839;19;130596;-62
2023/07/23 16:07:51;;;;;;;9.20;1.60;;;;;;;22.86;47.12;100539.34;16117959;19;133213;-61
2023/07/23 16:13:13;;;;;;;4.05;1.30;;;;;;;22.87;47.16;100541.03;16117474;19;129341;-62
2023/07/23 16:18:35;;;;;;;8.63;1.83;;;;;;;22.84;46.73;100536.84;16117332;19;129515;-60
2023/07/23 16:23:57;;;;;;;4.97;1.77;;;;;;;22.83;46.95;100539.91;16112466;19;130068;-59
2023/07/23 16:29:19;;;;;;;2.90;1.80;;;;;;;22.82;47.19;100549.41;16113064;19;130155;-59
2023/07/23 16:34:41;;;;;;;3.35;1.70;;;;;;;22.79;47.19;100536.03;16115639;19;131540;-59
2023/07/23 16:40:06;;;;;;;4.03;1.52;;;;;;;22.77;47.13;100535.50;16117637;19;130762;-59
2023/07/23 16:45:28;;;;;;;3.13;1.60;;;;;;;22.72;47.22;100526.03;16117291;19;129563;-60
2023/07/23 16:50:50;;;;;;;3.90;1.65;;;;;;;22.71;47.21;100517.91;16115610;19;130290;-60
2023/07/23 16:56:12;;;;;;;5.63;1.40;;;;;;;22.70;47.08;100519.88;16116687;19;129956;-60
2023/07/23 17:01:34;;;;;;;2.92;1.60;;;;;;;22.68;47.32;100513.75;16130495;19;129557;-60
2023/07/23 17:06:56;;;;;;;1.70;1.30;;;;;;;22.67;46.92;100514.06;16127615;19;129743;-59
2023/07/23 17:12:18;;;;;;;2.38;1.40;;;;;;;22.64;47.02;100521.03;16127091;19;130112;-60
2023/07/23 17:17:40;;;;;;;3.95;1.40;;;;;;;22.62;47.22;100517.69;16125646;19;133568;-59
2023/07/23 17:23:02;;;;;;;2.47;1.27;;;;;;;22.62;47.21;100514.91;16128584;19;130238;-59
2023/07/23 17:28:24;;;;;;;1.60;1.17;;;;;;;22.61;47.18;100507.66;16126520;19;129504;-60
2023/07/23 17:33:46;;;;;;;5.88;1.42;;;;;;;22.61;47.48;100509.59;16127093;19;129605;-60
2023/07/23 17:39:08;;;;;;;4.32;1.15;;;;;;;22.61;47.46;100492.88;16117238;19;131159;-54
2023/07/23 17:44:30;;;;;;;1.77;1.20;;;;;;;22.62;47.44;100495.38;16117784;19;130502;-62
2023/07/23 17:49:52;;;;;;;7.18;1.65;;;;;;;22.62;48.06;100511.25;16119172;19;132087;-60
2023/07/23 17:55:14;;;;;;;4.63;1.48;;;;;;;22.58;47.92;100511.00;16122122;19;129589;-63
2023/07/23 18:00:36;;;;;;;6.88;1.38;;;;;;;22.54;48.35;100502.38;16118454;19;131187;-56
2023/07/23 18:05:58;;;;;;;32.03;2.95;;;;;;;22.53;47.97;100514.66;16118179;19;131572;-54
2023/07/23 18:11:20;;;;;;;19.42;2.67;;;;;;;22.53;48.26;100514.66;16117461;19;129574;-57
2023/07/23 18:16:43;;;;;;;10.45;1.30;;;;;;;22.53;48.24;100519.38;16117525;19;130275;-55
2023/07/23 18:22:05;;;;;;;11.98;1.40;;;;;;;22.54;48.38;100538.63;16111504;19;129562;-56
2023/07/23 18:27:27;;;;;;;5.80;1.60;;;;;;;22.55;48.40;100534.72;16117399;19;129822;-54
2023/07/23 18:32:50;;;;;;;11.18;1.42;;;;;;;22.55;48.47;100539.44;16116508;19;129386;-56
2023/07/23 18:38:12;;;;;;;9.75;1.30;;;;;;;22.55;48.55;100528.28;16118430;19;130426;-56
2023/07/23 18:43:34;;;;;;;11.70;1.80;;;;;;;22.55;48.29;100529.13;16118056;19;130526;-56
2023/07/23 18:48:56;;;;;;;8.20;1.70;;;;;;;22.55;48.21;100533.88;16115004;19;130659;-56
2023/07/23 18:54:18;;;;;;;11.00;1.33;;;;;;;22.55;48.96;100531.06;16113900;19;129598;-58
2023/07/23 18:59:40;;;;;;;7.50;1.60;;;;;;;22.55;49.11;100528.28;16113013;19;130151;-57
2023/07/23 19:05:02;;;;;;;8.88;1.23;;;;;;;22.54;48.94;100532.19;16113472;19;129938;-56
2023/07/23 19:10:24;;;;;;;8.02;1.55;;;;;;;22.54;48.79;100532.19;16112516;19;130842;-57
2023/07/23 19:15:46;;;;;;;4.65;1.23;;;;;;;22.53;48.84;100524.94;16111603;19;130707;-58
2023/07/23 19:21:08;;;;;;;7.25;1.40;;;;;;;22.50;48.83;100518.00;16103934;19;131033;-56
2023/07/23 19:26:30;;;;;;;9.02;1.40;;;;;;;22.49;48.93;100519.09;16109784;19;129871;-56
2023/07/23 19:31:52;;;;;;;7.15;1.20;;;;;;;22.50;48.49;100519.97;16111289;19;129823;-57
2023/07/23 19:37:15;;;;;;;7.88;1.50;;;;;;;22.52;49.17;100515.75;16108972;19;129704;-60
2023/07/23 19:42:37;;;;;;;7.35;1.30;;;;;;;22.51;48.57;100513.28;16105840;19;129764;-59
2023/07/23 19:47:59;;;;;;;6.78;1.13;;;;;;;22.50;48.79;100525.53;16113647;19;129834;-59
2023/07/23 19:53:23;;;;;;;6.20;1.60;;;;;;;22.47;48.66;100532.47;16112430;19;131141;-59
2023/07/23 19:58:45;;;;;;;5.63;1.55;;;;;;;22.47;48.88;100534.44;16106774;19;131044;-59
2023/07/23 20:04:07;;;;;;;6.90;1.75;;;;;;;22.44;48.56;100542.25;16110064;19;133286;-59
2023/07/23 20:09:28;;;;;;;12.10;1.55;;;;;;;22.41;48.63;100539.19;16110918;19;130523;-59
2023/07/23 20:14:52;;;;;;;8.23;1.38;;;;;;;22.40;48.16;100557.03;16099621;19;129803;-59
2023/07/23 20:20:14;;;;;;;3.40;1.35;;;;;;;22.38;48.34;100556.47;16108558;19;129929;-58
2023/07/23 20:25:36;;;;;;;8.48;1.50;;;;;;;22.35;48.16;100546.75;16111159;19;129592;-59
2023/07/23 20:30:58;;;;;;;8.73;1.20;;;;;;;22.33;48.21;100554.53;16111256;19;130783;-59
2023/07/23 20:36:21;;;;;;;4.88;1.60;;;;;;;22.32;48.53;100557.63;16124361;19;130727;-59
2023/07/23 20:41:43;;;;;;;6.72;1.25;;;;;;;22.30;48.00;100549.53;16128154;19;129450;-59
2023/07/23 20:47:07;;;;;;;4.88;1.08;;;;;;;22.28;47.88;100546.19;16126778;19;129660;-59
2023/07/23 20:52:29;;;;;;;7.57;1.20;;;;;;;22.27;48.30;100545.34;16125890;19;131135;-59
2023/07/23 20:57:51;;;;;;;2.92;1.00;;;;;;;22.26;48.20;100542.84;16126085;19;129530;-59
2023/07/23 21:03:13;;;;;;;3.05;1.00;;;;;;;22.25;48.32;100549.53;16124242;19;130271;-59
2023/07/23 21:08:35;;;;;;;4.82;0.88;;;;;;;22.23;48.00;100554.56;16123545;19;129834;-59
2023/07/23 21:13:57;;;;;;;7.80;1.00;;;;;;;22.22;47.90;100552.88;16119329;19;130718;-59
2023/07/23 21:19:20;;;;;;;5.20;1.05;;;;;;;22.21;48.02;100552.06;16119286;19;129609;-59
2023/07/23 21:24:42;;;;;;;2.92;1.10;;;;;;;22.20;48.11;100549.50;16121443;19;131308;-59
2023/07/23 21:30:04;;;;;;;2.80;0.90;;;;;;;22.19;48.07;100542.25;16117553;19;129799;-59
2023/07/23 21:35:26;;;;;;;6.22;1.10;;;;;;;22.18;48.09;100540.59;16119594;19;129836;-59
2023/07/23 21:40:54;;;;;;;2.05;1.00;;;;;;;22.18;48.26;100532.22;16122781;19;130084;-59
2023/07/23 21:46:16;;;;;;;2.92;0.80;;;;;;;22.17;48.28;100522.19;16116046;19;131750;-59
2023/07/23 21:51:38;;;;;;;2.55;1.00;;;;;;;22.16;47.90;100524.16;16116064;19;130504;-58
2023/07/23 21:57:00;;;;;;;3.28;0.73;;;;;;;22.15;48.01;100518.88;16122295;19;130584;-59
2023/07/23 22:02:22;;;;;;;3.38;0.90;;;;;;;22.15;48.17;100507.75;16121083;19;129630;-59
2023/07/23 22:07:44;;;;;;;5.03;1.05;;;;;;;22.13;48.23;100511.63;16116649;19;129188;-59
2023/07/23 22:13:06;;;;;;;2.28;0.80;;;;;;;22.13;47.98;100488.50;16119044;19;130185;-59
2023/07/23 22:18:28;;;;;;;4.78;0.80;;;;;;;22.11;47.75;100469.28;16114787;19;131200;-57
2023/07/23 22:23:50;;;;;;;2.28;0.80;;;;;;;22.10;48.24;100472.34;16112869;19;129662;-59
2023/07/23 22:29:12;;;;;;;1.98;0.63;;;;;;;22.10;47.99;100483.47;16116114;19;131175;-59
2023/07/23 22:34:34;;;;;;;1.73;0.90;;;;;;;22.09;47.83;100490.19;16116741;19;129874;-59
2023/07/23 22:39:56;;;;;;;1.35;0.90;;;;;;;22.09;47.84;100479.88;16117741;19;129246;-59
2023/07/23 22:45:18;;;;;;;4.00;0.82;;;;;;;22.09;47.99;100476.28;16113615;19;130881;-59
2023/07/23 22:50:41;;;;;;;1.95;0.50;;;;;;;22.07;47.96;100462.59;16115432;19;129982;-59
2023/07/23 22:56:14;;;;;;;1.50;0.50;;;;;;;22.07;47.96;100462.59;16116058;19;130387;-59
2023/07/23 23:01:36;;;;;;;2.20;0.60;;;;;;;22.06;47.93;100449.78;16119928;19;130879;-59
2023/07/23 23:06:58;;;;;;;0.93;0.55;;;;;;;22.04;47.86;100454.78;16115183;19;129891;-59
2023/07/23 23:12:20;;;;;;;2.58;0.63;;;;;;;22.05;47.87;100453.69;16110787;19;130944;-59
2023/07/23 23:17:42;;;;;;;1.13;0.75;;;;;;;22.04;47.89;100449.22;16116121;19;130155;-59
2023/07/23 23:23:05;;;;;;;1.15;0.60;;;;;;;22.05;48.01;100448.13;16114054;19;129934;-58
2023/07/23 23:28:27;;;;;;;1.30;0.60;;;;;;;22.04;47.61;100463.16;16113353;19;130321;-59
2023/07/23 23:33:50;;;;;;;0.98;0.52;;;;;;;22.03;48.01;100441.16;16113071;19;129631;-58
2023/07/23 23:39:12;;;;;;;0.60;0.52;;;;;;;22.02;47.52;100440.34;16108770;19;131659;-59
2023/07/23 23:44:37;;;;;;;0.93;0.60;;;;;;;22.01;47.84;100438.66;16109942;19;131781;-59
2023/07/23 23:49:59;;;;;;;1.83;0.43;;;;;;;22.02;47.50;100436.72;16113408;19;130114;-59
2023/07/23 23:55:21;;;;;;;1.65;0.60;;;;;;;22.01;47.79;100408.03;16107061;19;130766;-59
